createdAt,value
2023-08-10T00:00:11.234Z,94
2023-08-10T00:01:25.503Z,94.2
2023-08-10T00:02:39.800Z,94.3
2023-08-10T00:03:54.209Z,95
2023-08-10T00:05:08.525Z,95.4
2023-08-10T00:06:22.809Z,95.4
2023-08-10T00:07:37.095Z,95.5
2023-08-10T00:08:51.487Z,95.5
2023-08-10T00:10:05.820Z,95.4
2023-08-10T00:11:20.092Z,95.7
2023-08-10T00:12:34.381Z,96
2023-08-10T00:13:48.783Z,96.4
2023-08-10T00:15:03.102Z,96.4
2023-08-10T00:16:17.398Z,96.5
2023-08-10T00:17:31.679Z,96.5
2023-08-10T00:18:46.072Z,96.5
2023-08-10T00:20:00.399Z,96.5
2023-08-10T00:21:14.692Z,96.3
2023-08-10T00:22:28.970Z,96
2023-08-10T00:23:43.372Z,95.8
2023-08-10T00:24:57.689Z,95.8
2023-08-10T00:26:11.972Z,95.8
2023-08-10T00:27:26.251Z,95.8
2023-08-10T00:28:40.672Z,96.1
2023-08-10T00:29:55.000Z,96.5
2023-08-10T00:31:09.000Z,97.1
2023-08-10T00:32:23.560Z,97.3
2023-08-10T00:33:37.961Z,97.1
2023-08-10T00:34:52.282Z,97
2023-08-10T00:36:06.624Z,97
2023-08-10T00:37:19.973Z,97.1
2023-08-10T00:38:34.290Z,97.4
2023-08-10T00:39:48.576Z,97.5
2023-08-10T00:41:02.858Z,97.4
2023-08-10T00:42:17.260Z,97.3
2023-08-10T00:43:31.596Z,97.3
2023-08-10T00:44:45.870Z,97.4
2023-08-10T00:46:00.155Z,97.5
2023-08-10T00:47:14.550Z,97.3
2023-08-10T00:48:28.882Z,97.2
2023-08-10T00:49:43.172Z,97.1
2023-08-10T00:50:57.438Z,97
2023-08-10T00:52:11.848Z,97.1
2023-08-10T00:53:26.185Z,97.2
2023-08-10T00:54:40.464Z,97.2
2023-08-10T00:55:54.734Z,97.3
2023-08-10T00:57:09.153Z,97.4
2023-08-10T00:58:23.478Z,97.4
2023-08-10T00:59:37.756Z,97.2
2023-08-10T01:00:52.152Z,97.3
2023-08-10T01:02:06.571Z,97.3
2023-08-10T01:03:20.879Z,97.4
2023-08-10T01:04:35.165Z,97.2
2023-08-10T01:05:49.448Z,97.2
2023-08-10T01:07:03.848Z,97
2023-08-10T01:08:18.186Z,97
2023-08-10T01:09:32.467Z,97
2023-08-10T01:10:46.748Z,97.4
2023-08-10T01:12:01.146Z,97.5
2023-08-10T01:13:15.482Z,97.6
2023-08-10T01:14:29.758Z,97.7
2023-08-10T01:15:44.043Z,97.6
2023-08-10T01:16:58.451Z,97.6
2023-08-10T01:18:12.762Z,97.4
2023-08-10T01:19:27.057Z,97.3
2023-08-10T01:20:41.318Z,97.1
2023-08-10T01:21:55.737Z,97
2023-08-10T01:23:10.068Z,97
2023-08-10T01:24:24.332Z,97.2
2023-08-10T01:25:38.620Z,97.4
2023-08-10T01:26:53.033Z,97.5
2023-08-10T01:28:07.351Z,97.6
2023-08-10T01:29:21.631Z,97.8
2023-08-10T01:30:35.923Z,98
2023-08-10T01:31:50.317Z,97.7
2023-08-10T01:33:04.652Z,97.3
2023-08-10T01:34:18.923Z,97.1
2023-08-10T01:35:33.206Z,96.7
2023-08-10T01:36:47.614Z,96.7
2023-08-10T01:38:01.945Z,96.9
2023-08-10T01:39:16.215Z,97
2023-08-10T01:40:30.510Z,97
2023-08-10T01:41:44.919Z,97.1
2023-08-10T01:42:59.234Z,97
2023-08-10T01:44:13.515Z,97
2023-08-10T01:45:27.787Z,96.8
2023-08-10T01:46:42.255Z,96.7
2023-08-10T01:47:56.591Z,96.9
2023-08-10T01:49:09.956Z,97.1
2023-08-10T01:50:24.240Z,97.4
2023-08-10T01:51:38.644Z,97.3
2023-08-10T01:52:52.977Z,97.2
2023-08-10T01:54:07.247Z,97.1
2023-08-10T01:55:21.537Z,96.7
2023-08-10T01:56:35.929Z,96.7
2023-08-10T01:57:50.262Z,96.8
2023-08-10T01:59:04.535Z,96.8
2023-08-10T02:00:18.831Z,96.6
2023-08-10T02:01:33.226Z,96.5
2023-08-10T02:02:47.551Z,96.3
2023-08-10T02:04:01.824Z,96.1
2023-08-10T02:05:16.118Z,96.2
2023-08-10T02:06:30.520Z,96.1
2023-08-10T02:07:44.837Z,96.4
2023-08-10T02:08:59.127Z,96.6
2023-08-10T02:10:13.398Z,96.6
2023-08-10T02:11:27.817Z,96.5
2023-08-10T02:12:42.136Z,96.5
2023-08-10T02:13:56.413Z,96.3
2023-08-10T02:15:10.695Z,96.2
2023-08-10T02:16:25.105Z,96.2
2023-08-10T02:17:39.438Z,96.4
2023-08-10T02:18:53.721Z,96.6
2023-08-10T02:20:08.061Z,96.7
2023-08-10T02:21:22.457Z,96.8
2023-08-10T02:22:36.799Z,97
2023-08-10T02:23:51.130Z,97.3
2023-08-10T02:25:05.483Z,97.5
2023-08-10T02:26:18.824Z,97.3
2023-08-10T02:27:33.146Z,97.1
2023-08-10T02:28:47.438Z,97.1
2023-08-10T02:30:01.705Z,96.8
2023-08-10T02:31:16.113Z,96.5
2023-08-10T02:32:30.444Z,96.3
2023-08-10T02:33:44.720Z,96.4
2023-08-10T02:34:58.998Z,96.5
2023-08-10T02:36:13.416Z,96.5
2023-08-10T02:37:27.740Z,96.6
2023-08-10T02:38:42.016Z,96.6
2023-08-10T02:39:56.288Z,96.6
2023-08-10T02:41:10.705Z,96.5
2023-08-10T02:42:25.027Z,96.5
2023-08-10T02:43:39.307Z,96.5
2023-08-10T02:44:53.583Z,96.6
2023-08-10T02:46:08.005Z,96.6
2023-08-10T02:47:22.323Z,96.7
2023-08-10T02:48:36.605Z,96.8
2023-08-10T02:49:50.887Z,96.8
2023-08-10T02:51:05.300Z,96.8
2023-08-10T02:52:19.616Z,96.7
2023-08-10T02:53:33.901Z,96.8
2023-08-10T02:54:48.169Z,96.7
2023-08-10T02:56:02.579Z,96.7
2023-08-10T02:57:16.973Z,96.5
2023-08-10T02:58:30.348Z,96.6
2023-08-10T02:59:43.699Z,96.4
2023-08-10T03:00:58.036Z,96.6
2023-08-10T03:02:12.317Z,96.4
2023-08-10T03:03:26.594Z,96.4
2023-08-10T03:04:40.988Z,96.8
2023-08-10T03:05:55.313Z,96.7
2023-08-10T03:07:09.597Z,96.7
2023-08-10T03:08:23.891Z,96.8
2023-08-10T03:09:38.292Z,96.5
2023-08-10T03:10:52.608Z,96.3
2023-08-10T03:12:06.887Z,96.1
2023-08-10T03:13:21.168Z,96
2023-08-10T03:14:35.587Z,96.2
2023-08-10T03:15:49.900Z,96.2
2023-08-10T03:17:04.181Z,96.2
2023-08-10T03:18:18.521Z,96.4
2023-08-10T03:19:32.799Z,96.4
2023-08-10T03:20:47.192Z,96.3
2023-08-10T03:22:01.518Z,96.3
2023-08-10T03:23:15.751Z,96.5
2023-08-10T03:24:29.983Z,96.8
2023-08-10T03:25:44.214Z,96.5
2023-08-10T03:26:58.499Z,96.1
2023-08-10T03:28:12.803Z,96.2
2023-08-10T03:29:27.080Z,96.3
2023-08-10T03:30:41.361Z,96.2
2023-08-10T03:31:55.658Z,96.1
2023-08-10T03:33:09.937Z,95.8
2023-08-10T03:34:24.232Z,95.6
2023-08-10T03:35:37.527Z,95.5
2023-08-10T03:36:51.833Z,95.4
2023-08-10T03:38:06.056Z,95.4
2023-08-10T03:39:20.286Z,95.3
2023-08-10T03:41:48.734Z,95.3
2023-08-10T03:43:03.040Z,95.3
2023-08-10T03:44:17.294Z,95.1
2023-08-10T03:45:31.502Z,94.9
2023-08-10T03:46:45.745Z,94.8
2023-08-10T03:47:59.957Z,94.5
2023-08-10T03:49:14.265Z,94.8
2023-08-10T03:50:28.496Z,94.9
2023-08-10T03:51:42.741Z,95
2023-08-10T03:52:57.087Z,94.9
2023-08-10T03:54:11.310Z,95
2023-08-10T03:55:25.614Z,95.1
2023-08-10T03:56:39.847Z,95.1
2023-08-10T03:57:54.070Z,95.3
2023-08-10T03:59:08.298Z,95.5
2023-08-10T04:00:22.518Z,95.8
2023-08-10T04:01:36.823Z,96.1
2023-08-10T04:02:51.073Z,96.4
2023-08-10T04:04:05.297Z,96.7
2023-08-10T04:05:19.511Z,97
2023-08-10T04:06:33.894Z,97.3
2023-08-10T04:07:48.186Z,97.4
2023-08-10T04:09:02.432Z,97.3
2023-08-10T04:10:16.649Z,97.4
2023-08-10T04:11:30.876Z,97.4
2023-08-10T04:12:45.117Z,97.4
2023-08-10T04:13:59.415Z,97.4
2023-08-10T04:15:13.642Z,97.5
2023-08-10T04:16:27.883Z,97.6
2023-08-10T04:17:42.109Z,97.6
2023-08-10T04:18:56.461Z,97.6
2023-08-10T04:20:10.745Z,97.5
2023-08-10T04:21:24.985Z,97.4
2023-08-10T04:22:39.223Z,97.3
2023-08-10T04:23:53.443Z,97.1
2023-08-10T04:25:07.678Z,97.1
2023-08-10T04:26:21.976Z,97.2
2023-08-10T04:27:36.211Z,97.4
2023-08-10T04:28:50.441Z,97.6
2023-08-10T04:30:04.655Z,97.8
2023-08-10T04:31:18.900Z,98
2023-08-10T04:33:47.441Z,98.2
2023-08-10T04:35:01.667Z,98.3
2023-08-10T04:36:15.883Z,98.1
2023-08-10T04:37:30.117Z,98
2023-08-10T04:38:44.415Z,98
2023-08-10T04:39:58.657Z,97.9
2023-08-10T04:41:12.883Z,97.8
2023-08-10T04:42:27.113Z,97.9
2023-08-10T04:43:41.332Z,97.6
2023-08-10T04:44:55.635Z,97.5
2023-08-10T04:46:09.868Z,97.4
2023-08-10T04:47:24.093Z,97.2
2023-08-10T04:49:52.548Z,97.1
2023-08-10T04:51:06.857Z,97
2023-08-10T04:52:21.095Z,97
2023-08-10T04:53:35.318Z,97.1
2023-08-10T04:54:49.545Z,96.8
2023-08-10T04:56:03.773Z,96.7
2023-08-10T04:57:18.066Z,96.6
2023-08-10T04:58:32.307Z,96.6
2023-08-10T04:59:46.528Z,96.4
2023-08-10T05:01:00.756Z,96.2
2023-08-10T05:02:14.994Z,96
2023-08-10T05:03:29.292Z,96.2
2023-08-10T05:04:43.595Z,96.3
2023-08-10T05:05:57.995Z,96.3
2023-08-10T05:07:11.289Z,96.5
2023-08-10T05:08:25.594Z,96.6
2023-08-10T05:09:39.834Z,96.7
2023-08-10T05:10:54.065Z,96.8
2023-08-10T05:12:08.288Z,96.7
2023-08-10T05:13:22.502Z,96.3
2023-08-10T05:14:36.808Z,95.4
2023-08-10T05:15:51.056Z,94.9
2023-08-10T05:17:05.277Z,94.7
2023-08-10T05:18:19.505Z,94.8
2023-08-10T05:19:33.732Z,94.9
2023-08-10T05:20:48.033Z,94.1
2023-08-10T05:22:02.266Z,93.8
2023-08-10T05:23:16.499Z,93.7
2023-08-10T05:24:30.724Z,93.2
2023-08-10T05:25:44.953Z,93.1
2023-08-10T05:26:59.252Z,92.8
2023-08-10T05:28:13.491Z,92.5
2023-08-10T05:29:27.722Z,92.2
2023-08-10T05:30:41.946Z,91.8
2023-08-10T05:31:56.162Z,91.8
2023-08-10T05:33:10.469Z,92
2023-08-10T05:34:24.722Z,91.1
2023-08-10T05:35:38.938Z,90.7
2023-08-10T05:36:53.173Z,90.8
2023-08-10T05:38:07.453Z,91
2023-08-10T05:39:21.751Z,91.8
2023-08-10T05:40:36.040Z,91.3
2023-08-10T05:41:49.360Z,91.3
2023-08-10T05:43:03.659Z,90.3
2023-08-10T05:44:17.939Z,90.2
2023-08-10T05:45:32.228Z,90.1
2023-08-10T05:46:45.524Z,90.2
2023-08-10T05:47:59.762Z,89.8
2023-08-10T05:49:14.057Z,89.8
2023-08-10T05:50:28.297Z,89.6
2023-08-10T05:51:42.513Z,89.4
2023-08-10T05:52:56.744Z,88.7
2023-08-10T05:54:10.981Z,88.6
2023-08-10T05:55:25.277Z,88.9
2023-08-10T05:56:39.514Z,89.1
2023-08-10T05:57:53.734Z,88.8
2023-08-10T05:59:07.969Z,88.7
2023-08-10T06:00:22.186Z,87.8
2023-08-10T06:01:36.486Z,88.1
2023-08-10T06:02:50.731Z,88.1
2023-08-10T06:04:04.958Z,88.7
2023-08-10T06:05:19.188Z,88.9
2023-08-10T06:06:33.415Z,89.2
2023-08-10T06:07:47.704Z,88.5
2023-08-10T06:09:01.955Z,87.3
2023-08-10T06:10:16.186Z,87.4
2023-08-10T06:11:30.402Z,87.8
2023-08-10T06:12:44.641Z,88.2
2023-08-10T06:13:58.943Z,87.8
2023-08-10T06:15:13.182Z,88.3
2023-08-10T06:16:27.397Z,88.3
2023-08-10T06:17:41.693Z,87.5
2023-08-10T06:18:55.029Z,87.6
2023-08-10T06:20:09.306Z,87.8
2023-08-10T06:21:22.613Z,88
2023-08-10T06:22:36.828Z,86.9
2023-08-10T06:23:51.141Z,86.8
2023-08-10T06:25:05.368Z,87.6
2023-08-10T06:26:19.595Z,87.1
2023-08-10T06:27:33.837Z,86.3
2023-08-10T06:30:02.354Z,85.5
2023-08-10T06:31:16.589Z,85.4
2023-08-10T06:32:30.816Z,86.5
2023-08-10T06:33:45.046Z,87.2
2023-08-10T06:34:59.281Z,86.2
2023-08-10T06:36:13.581Z,83.4
2023-08-10T06:37:27.825Z,83.6
2023-08-10T06:38:42.038Z,83
2023-08-10T06:39:56.267Z,82.9
2023-08-10T06:41:10.505Z,83.6
2023-08-10T06:42:24.787Z,83.2
2023-08-10T06:43:39.046Z,83
2023-08-10T06:44:53.267Z,83.1
2023-08-10T06:46:07.480Z,84.4
2023-08-10T06:47:21.718Z,84
2023-08-10T06:48:36.011Z,85.7
2023-08-10T06:49:50.265Z,85.9
2023-08-10T06:51:04.487Z,84.1
2023-08-10T06:52:18.777Z,82.9
2023-08-10T06:53:32.109Z,82.9
2023-08-10T06:54:46.384Z,83.5
2023-08-10T06:55:59.684Z,82.8
2023-08-10T06:57:13.905Z,82.4
2023-08-10T06:58:28.216Z,83.2
2023-08-10T06:59:42.440Z,82.2
2023-08-10T07:00:56.675Z,81
2023-08-10T07:02:10.898Z,80.8
2023-08-10T07:03:25.127Z,80.3
2023-08-10T07:04:39.417Z,81.3
2023-08-10T07:05:53.668Z,81.8
2023-08-10T07:07:07.901Z,79.8
2023-08-10T07:08:22.120Z,79.4
2023-08-10T07:12:04.895Z,77.1
2023-08-10T07:13:19.121Z,76.9
2023-08-10T07:14:33.345Z,77.8
2023-08-10T07:15:47.560Z,78.6
2023-08-10T07:17:01.862Z,79.1
2023-08-10T07:18:16.114Z,78.2
2023-08-10T07:19:30.324Z,78.7
2023-08-10T07:20:44.555Z,79.1
2023-08-10T07:21:58.786Z,79
2023-08-10T07:23:13.088Z,80.1
2023-08-10T07:24:27.319Z,79.9
2023-08-10T07:25:41.543Z,79.4
2023-08-10T07:26:55.837Z,78.6
2023-08-10T07:28:09.136Z,77.9
2023-08-10T07:29:23.384Z,78.6
2023-08-10T07:30:37.622Z,77.8
2023-08-10T07:31:51.955Z,77.6
2023-08-10T07:33:06.177Z,78.2
2023-08-10T07:34:20.477Z,78.6
2023-08-10T07:35:34.710Z,78.9
2023-08-10T07:36:48.949Z,80.1
2023-08-10T07:38:03.162Z,78.4
2023-08-10T07:39:17.396Z,77.9
2023-08-10T07:40:31.702Z,78.6
2023-08-10T07:41:45.928Z,79.3
2023-08-10T07:43:00.163Z,78.4
2023-08-10T07:44:14.379Z,79
2023-08-10T07:45:28.606Z,79.4
2023-08-10T07:46:42.911Z,77.3
2023-08-10T07:47:57.149Z,76.8
2023-08-10T07:49:11.385Z,76.9
2023-08-10T07:50:25.608Z,75.5
2023-08-10T07:51:39.960Z,74.8
2023-08-10T07:52:54.253Z,75.6
2023-08-10T07:54:08.503Z,74.8
2023-08-10T07:56:36.951Z,73.8
2023-08-10T07:57:51.180Z,74.1
2023-08-10T07:59:05.476Z,73.3
2023-08-10T08:00:19.710Z,73.4
2023-08-10T08:01:33.938Z,73.9
2023-08-10T08:02:48.000Z,72
2023-08-10T08:04:02.394Z,71.6
2023-08-10T08:05:16.707Z,74.1
2023-08-10T08:06:30.942Z,73.8
2023-08-10T08:07:45.166Z,69.8
2023-08-10T08:08:59.392Z,69.6
2023-08-10T08:10:13.625Z,70
2023-08-10T08:11:27.925Z,69
2023-08-10T08:12:42.161Z,66
2023-08-10T08:13:56.377Z,64.8
2023-08-10T08:15:10.609Z,65.2
2023-08-10T08:16:24.834Z,66.2
2023-08-10T08:17:39.136Z,68
2023-08-10T08:18:53.386Z,68.9
2023-08-10T08:20:07.606Z,68.6
2023-08-10T08:21:21.836Z,68
2023-08-10T08:22:36.052Z,69.3
2023-08-10T08:23:50.357Z,66.5
2023-08-10T08:25:04.599Z,67.9
2023-08-10T08:26:18.821Z,68
2023-08-10T08:27:33.060Z,67.5
2023-08-10T08:28:47.280Z,69.4
2023-08-10T08:30:01.589Z,68.7
2023-08-10T08:31:15.830Z,68.6
2023-08-10T08:32:30.198Z,67.8
2023-08-10T08:33:44.413Z,67
2023-08-10T08:34:58.638Z,67
2023-08-10T08:36:12.950Z,64.9
2023-08-10T08:37:27.184Z,62.6
2023-08-10T08:38:41.412Z,60.1
2023-08-10T08:39:55.764Z,59.4
2023-08-10T08:41:09.979Z,57.8
2023-08-10T08:42:24.289Z,58.6
2023-08-10T08:43:38.535Z,59.9
2023-08-10T08:44:52.753Z,58.1
2023-08-10T08:46:06.979Z,58.9
2023-08-10T08:47:21.201Z,59.7
2023-08-10T08:48:35.502Z,59.4
2023-08-10T08:49:49.753Z,57.6
2023-08-10T08:51:03.975Z,57.4
2023-08-10T08:52:18.195Z,59.7
2023-08-10T08:53:32.433Z,61.5
2023-08-10T08:54:46.728Z,59.7
2023-08-10T08:56:00.968Z,58.7
2023-08-10T08:57:15.187Z,59.2
2023-08-10T08:58:29.427Z,60
2023-08-10T08:59:43.638Z,59.3
2023-08-10T09:00:57.956Z,62.9
2023-08-10T09:02:12.196Z,61
2023-08-10T09:03:26.417Z,62.5
2023-08-10T09:04:40.652Z,58.3
2023-08-10T09:05:54.867Z,59.6
2023-08-10T09:07:09.159Z,60.2
2023-08-10T09:08:23.402Z,56.3
2023-08-10T09:09:37.627Z,54.4
2023-08-10T09:10:51.856Z,55.1
2023-08-10T09:12:06.087Z,54.3
2023-08-10T09:13:20.397Z,57.2
2023-08-10T09:14:34.626Z,59.4
2023-08-10T09:15:48.857Z,62.2
2023-08-10T09:17:03.081Z,62.4
2023-08-10T09:18:17.316Z,60.7
2023-08-10T09:19:31.614Z,56.8
2023-08-10T09:20:45.855Z,54.5
2023-08-10T09:22:00.213Z,56.3
2023-08-10T09:23:14.452Z,58.3
2023-08-10T09:24:28.683Z,61
2023-08-10T09:25:42.966Z,64.5
2023-08-10T09:26:57.230Z,59
2023-08-10T09:28:11.464Z,56.6
2023-08-10T09:29:25.673Z,55.2
2023-08-10T09:30:39.913Z,51.3
2023-08-10T09:31:54.216Z,49.4
2023-08-10T09:33:08.442Z,50.6
2023-08-10T09:34:22.671Z,49.5
2023-08-10T09:35:36.896Z,51.1
2023-08-10T09:36:51.131Z,50.9
2023-08-10T09:38:05.421Z,50.3
2023-08-10T09:39:19.670Z,49.8
2023-08-10T09:40:33.895Z,50.3
2023-08-10T09:41:48.126Z,49.8
2023-08-10T09:43:02.351Z,51.5
2023-08-10T09:44:16.657Z,51.9
2023-08-10T09:45:30.905Z,49.8
2023-08-10T09:46:45.120Z,47.9
2023-08-10T09:47:59.356Z,46.9
2023-08-10T09:49:13.579Z,50.1
2023-08-10T09:50:27.871Z,49.3
2023-08-10T09:51:42.114Z,47
2023-08-10T09:52:56.410Z,46.7
2023-08-10T09:54:10.686Z,43.2
2023-08-10T09:55:23.988Z,44.2
2023-08-10T09:56:38.228Z,42.7
2023-08-10T09:57:52.465Z,43.7
2023-08-10T09:59:06.676Z,43.6
2023-08-10T10:00:20.917Z,47
2023-08-10T10:01:35.215Z,47.1
2023-08-10T10:02:49.463Z,47.7
2023-08-10T10:04:03.677Z,46.1
2023-08-10T10:05:17.908Z,48.3
2023-08-10T10:06:32.128Z,48.5
2023-08-10T10:07:46.447Z,48.4
2023-08-10T10:09:00.685Z,48.6
2023-08-10T10:10:14.904Z,49.6
2023-08-10T10:11:29.139Z,48.7
2023-08-10T10:12:43.359Z,49.7
2023-08-10T10:13:57.670Z,49.9
2023-08-10T10:15:11.908Z,48.9
2023-08-10T10:16:26.140Z,48.3
2023-08-10T10:17:40.358Z,49.6
2023-08-10T10:18:54.721Z,49.9
2023-08-10T10:20:09.012Z,50.1
2023-08-10T10:21:23.259Z,50.4
2023-08-10T10:22:37.492Z,51.5
2023-08-10T10:23:51.712Z,48.4
2023-08-10T10:25:05.943Z,50
2023-08-10T10:26:20.247Z,51
2023-08-10T10:27:34.485Z,49.2
2023-08-10T10:28:48.715Z,49
2023-08-10T10:30:03.086Z,51.4
2023-08-10T10:31:17.322Z,50.4
2023-08-10T10:32:31.627Z,50.5
2023-08-10T10:33:45.868Z,52.4
2023-08-10T10:35:00.089Z,53.6
2023-08-10T10:36:14.310Z,54.8
2023-08-10T10:37:28.539Z,56.5
2023-08-10T10:38:42.843Z,53.3
2023-08-10T10:39:57.076Z,51.5
2023-08-10T10:41:11.308Z,50.4
2023-08-10T10:42:25.537Z,51.3
2023-08-10T10:43:39.774Z,51.3
2023-08-10T10:44:54.069Z,48.3
2023-08-10T10:48:36.759Z,49.8
2023-08-10T10:49:50.987Z,48.8
2023-08-10T10:51:05.303Z,48.8
2023-08-10T10:52:19.532Z,45
2023-08-10T10:53:33.755Z,44.5
2023-08-10T10:54:47.986Z,44
2023-08-10T10:56:02.226Z,46.9
2023-08-10T10:57:16.522Z,49.9
2023-08-10T10:58:30.763Z,51.8
2023-08-10T10:59:44.993Z,53.2
2023-08-10T11:00:59.271Z,52.2
2023-08-10T11:02:12.619Z,49.5
2023-08-10T11:03:26.893Z,47.5
2023-08-10T11:04:40.183Z,49
2023-08-10T11:05:54.411Z,50.8
2023-08-10T11:07:08.712Z,46.1
2023-08-10T11:08:22.971Z,45.4
2023-08-10T11:09:37.193Z,45.3
2023-08-10T11:10:51.533Z,45.2
2023-08-10T11:12:05.761Z,45.2
2023-08-10T11:13:20.074Z,43.9
2023-08-10T11:14:34.317Z,46.5
2023-08-10T11:15:48.530Z,46.6
2023-08-10T11:17:02.772Z,46.8
2023-08-10T11:18:16.996Z,47.8
2023-08-10T11:19:31.307Z,48.3
2023-08-10T11:20:45.543Z,50.6
2023-08-10T11:21:59.762Z,48.4
2023-08-10T11:23:14.003Z,49.5
2023-08-10T11:24:28.233Z,47.6
2023-08-10T11:25:42.517Z,47.2
2023-08-10T11:26:56.777Z,47.3
2023-08-10T11:28:10.995Z,47.2
2023-08-10T11:29:25.222Z,46.2
2023-08-10T11:30:39.454Z,44.8
2023-08-10T11:31:53.763Z,45.4
2023-08-10T11:34:22.220Z,47.2
2023-08-10T11:35:36.453Z,49.7
2023-08-10T11:36:50.688Z,49.1
2023-08-10T11:38:04.982Z,50.3
2023-08-10T11:39:19.229Z,51.2
2023-08-10T11:40:33.444Z,49.5
2023-08-10T11:41:47.678Z,50.5
2023-08-10T11:43:01.905Z,49.4
2023-08-10T11:44:16.212Z,48
2023-08-10T11:45:30.451Z,48.9
2023-08-10T11:46:44.680Z,49.3
2023-08-10T11:47:58.902Z,51
2023-08-10T11:49:13.140Z,49
2023-08-10T11:50:27.428Z,47.3
2023-08-10T11:51:41.686Z,50
2023-08-10T11:52:55.907Z,49.4
2023-08-10T11:54:10.138Z,50.5
2023-08-10T11:55:24.360Z,48.3
2023-08-10T11:56:38.719Z,46.8
2023-08-10T11:57:53.003Z,47.7
2023-08-10T11:59:07.294Z,45.3
2023-08-10T12:00:20.626Z,44.6
2023-08-10T12:01:34.917Z,44.5
2023-08-10T12:02:49.209Z,46
2023-08-10T12:05:16.881Z,48
2023-08-10T12:06:31.183Z,46.9
2023-08-10T12:07:45.418Z,49.3
2023-08-10T12:08:59.660Z,44.9
2023-08-10T12:10:13.871Z,47.7
2023-08-10T12:11:28.108Z,44
2023-08-10T12:12:42.408Z,44.8
2023-08-10T12:13:56.655Z,47
2023-08-10T12:15:10.867Z,49
2023-08-10T12:16:25.094Z,46.6
2023-08-10T12:17:39.329Z,48.1
2023-08-10T12:18:53.000Z,49.8
2023-08-10T12:20:07.866Z,49.4
2023-08-10T12:21:22.094Z,49.1
2023-08-10T12:22:36.462Z,47.1
2023-08-10T12:23:50.670Z,48.3
2023-08-10T12:25:04.972Z,48.7
2023-08-10T12:26:19.216Z,49.9
2023-08-10T12:28:47.675Z,49.2
2023-08-10T12:30:01.896Z,50.5
2023-08-10T12:31:16.207Z,48.4
2023-08-10T12:32:30.449Z,46.1
2023-08-10T12:33:44.682Z,46.2
2023-08-10T12:34:58.897Z,45.3
2023-08-10T12:36:13.139Z,43.8
2023-08-10T12:37:27.435Z,43.6
2023-08-10T12:38:41.674Z,41.5
2023-08-10T12:39:55.903Z,42.8
2023-08-10T12:41:10.122Z,41.2
2023-08-10T12:42:24.354Z,42.3
2023-08-10T12:43:38.655Z,44.6
2023-08-10T12:44:52.898Z,46.7
2023-08-10T12:46:07.122Z,45.8
2023-08-10T12:47:21.358Z,49.1
2023-08-10T12:48:35.587Z,49.7
2023-08-10T12:49:49.888Z,50.6
2023-08-10T12:51:04.124Z,49.9
2023-08-10T12:52:18.351Z,51.3
2023-08-10T12:53:32.580Z,50.6
2023-08-10T12:54:46.803Z,51
2023-08-10T12:56:01.107Z,53.6
2023-08-10T12:57:15.349Z,50.9
2023-08-10T12:58:29.568Z,50.6
2023-08-10T12:59:43.805Z,51
2023-08-10T13:00:58.035Z,50.3
2023-08-10T13:02:12.323Z,47.3
2023-08-10T13:03:26.572Z,48.5
2023-08-10T13:04:40.800Z,44.2
2023-08-10T13:05:55.034Z,42.6
2023-08-10T13:07:09.262Z,42.9
2023-08-10T13:08:23.608Z,43.2
2023-08-10T13:09:37.909Z,41.3
2023-08-10T13:10:51.229Z,41.8
2023-08-10T13:12:05.508Z,43.8
2023-08-10T13:13:19.823Z,44.7
2023-08-10T13:14:34.112Z,40
2023-08-10T13:15:48.383Z,43.5
2023-08-10T13:17:02.670Z,41.8
2023-08-10T13:18:16.955Z,40.1
2023-08-10T13:19:31.258Z,44.6
2023-08-10T13:20:45.551Z,43.3
2023-08-10T13:21:59.825Z,44.9
2023-08-10T13:23:14.109Z,47.3
2023-08-10T13:24:28.401Z,47.4
2023-08-10T13:25:42.706Z,47.6
2023-08-10T13:26:56.990Z,50.7
2023-08-10T13:28:10.310Z,53.1
2023-08-10T13:29:24.602Z,48.8
2023-08-10T13:30:38.898Z,51.4
2023-08-10T13:31:53.192Z,49.3
2023-08-10T13:33:06.481Z,51.1
2023-08-10T13:34:20.713Z,51.7
2023-08-10T13:35:35.007Z,52.8
2023-08-10T13:36:49.252Z,53.6
2023-08-10T13:38:03.483Z,53
2023-08-10T13:39:17.705Z,51.4
2023-08-10T13:40:31.942Z,53.4
2023-08-10T13:41:46.243Z,52.8
2023-08-10T13:43:00.472Z,54.2
2023-08-10T13:44:14.706Z,54.3
2023-08-10T13:45:28.940Z,53.4
2023-08-10T13:46:43.153Z,52.9
2023-08-10T13:47:57.466Z,53.7
2023-08-10T13:49:11.690Z,54.6
2023-08-10T13:50:25.927Z,54.6
2023-08-10T13:51:40.150Z,54.7
2023-08-10T13:52:54.377Z,54.4
2023-08-10T13:54:08.686Z,54.8
2023-08-10T13:55:22.913Z,57.2
2023-08-10T13:56:37.147Z,56.9
2023-08-10T13:57:51.370Z,57.4
2023-08-10T13:59:05.605Z,57.5
2023-08-10T14:00:19.896Z,57.9
2023-08-10T14:01:34.145Z,57.4
2023-08-10T14:02:48.374Z,55.6
2023-08-10T14:04:02.657Z,56.2
2023-08-10T14:05:15.993Z,57.7
2023-08-10T14:06:30.281Z,57
2023-08-10T14:07:44.563Z,57.5
2023-08-10T14:08:58.850Z,54.2
2023-08-10T14:10:13.130Z,55
2023-08-10T14:11:27.421Z,56.9
2023-08-10T14:12:41.707Z,55.8
2023-08-10T14:13:54.993Z,55.3
2023-08-10T14:15:09.237Z,55.6
2023-08-10T14:16:23.520Z,56.1
2023-08-10T14:17:37.777Z,56.7
2023-08-10T14:18:51.999Z,56.6
2023-08-10T14:20:06.220Z,57.4
2023-08-10T14:21:20.452Z,56.4
2023-08-10T14:22:34.753Z,58.7
2023-08-10T14:23:49.002Z,57.3
2023-08-10T14:25:03.225Z,56.1
2023-08-10T14:26:17.442Z,57.2
2023-08-10T14:27:31.681Z,57.2
2023-08-10T14:28:45.972Z,58
2023-08-10T14:30:00.205Z,56.2
2023-08-10T14:31:14.440Z,57.7
2023-08-10T14:32:28.658Z,57.4
2023-08-10T14:33:42.898Z,57.1
2023-08-10T14:34:57.199Z,56.5
2023-08-10T14:36:11.442Z,55.4
2023-08-10T14:37:25.659Z,55.8
2023-08-10T14:39:54.113Z,55.2
2023-08-10T14:41:08.426Z,53
2023-08-10T14:42:22.668Z,54.6
2023-08-10T14:43:36.881Z,53.8
2023-08-10T14:44:51.166Z,54.8
2023-08-10T14:46:04.504Z,54.1
2023-08-10T14:47:18.794Z,53.8
2023-08-10T14:48:32.084Z,54.1
2023-08-10T14:49:46.318Z,53.8
2023-08-10T14:51:00.610Z,54.7
2023-08-10T14:52:14.866Z,55.5
2023-08-10T14:53:29.085Z,52.8
2023-08-10T14:54:43.308Z,53.4
2023-08-10T14:55:57.541Z,53.4
2023-08-10T14:57:11.848Z,54.4
2023-08-10T14:58:26.078Z,56.4
2023-08-10T14:59:40.298Z,55.5
2023-08-10T15:00:54.533Z,57
2023-08-10T15:02:08.756Z,58
2023-08-10T15:03:23.071Z,55.1
2023-08-10T15:04:37.298Z,53.6
2023-08-10T15:05:51.529Z,54.1
2023-08-10T15:07:05.756Z,54
2023-08-10T15:08:19.974Z,55
2023-08-10T15:09:34.280Z,56.3
2023-08-10T15:10:48.529Z,55.5
2023-08-10T15:12:02.752Z,55.9
2023-08-10T15:13:16.987Z,53.9
2023-08-10T15:14:31.199Z,55.6
2023-08-10T15:15:45.499Z,56.3
2023-08-10T15:16:59.736Z,55.8
2023-08-10T15:18:13.970Z,56.9
2023-08-10T15:19:28.255Z,55.8
2023-08-10T15:20:42.669Z,56.5
2023-08-10T15:21:56.969Z,55.4
2023-08-10T15:23:11.237Z,55.6
2023-08-10T15:24:24.538Z,55
2023-08-10T15:25:38.772Z,56.4
2023-08-10T15:26:53.060Z,56.7
2023-08-10T15:28:07.314Z,55.3
2023-08-10T15:29:21.536Z,57.7
2023-08-10T15:30:35.769Z,57.5
2023-08-10T15:31:49.993Z,55.8
2023-08-10T15:33:04.287Z,55.1
2023-08-10T15:35:32.761Z,55.3
2023-08-10T15:36:46.978Z,55.2
2023-08-10T15:38:01.207Z,55.8
2023-08-10T15:39:15.515Z,54
2023-08-10T15:40:29.750Z,54.7
2023-08-10T15:41:43.984Z,56.6
2023-08-10T15:44:12.424Z,56
2023-08-10T15:45:26.733Z,55.7
2023-08-10T15:46:40.974Z,56.1
2023-08-10T15:47:55.192Z,56.3
2023-08-10T15:49:09.427Z,56.4
2023-08-10T15:50:23.648Z,56.6
2023-08-10T15:51:37.959Z,56.9
2023-08-10T15:52:52.201Z,56.1
2023-08-10T15:54:06.420Z,56.8
2023-08-10T15:55:20.715Z,57.6
2023-08-10T15:56:34.039Z,59
2023-08-10T15:57:48.316Z,58
2023-08-10T15:59:01.677Z,58.8
2023-08-10T16:00:16.078Z,57.9
2023-08-10T16:01:30.387Z,57.2
2023-08-10T16:02:44.670Z,58.7
2023-08-10T16:03:57.961Z,58.4
2023-08-10T16:05:12.189Z,59
2023-08-10T16:06:26.486Z,59.1
2023-08-10T16:07:40.726Z,58.5
2023-08-10T16:08:54.957Z,58.1
2023-08-10T16:10:09.191Z,58.4
2023-08-10T16:11:23.414Z,58.6
2023-08-10T16:13:51.952Z,57.4
2023-08-10T16:15:06.167Z,57.3
2023-08-10T16:16:20.401Z,58.8
2023-08-10T16:17:34.635Z,58.7
2023-08-10T16:18:48.921Z,59.1
2023-08-10T16:20:03.172Z,57.6
2023-08-10T16:21:17.395Z,57.8
2023-08-10T16:22:31.617Z,59.1
2023-08-10T16:23:45.849Z,59.4
2023-08-10T16:25:00.138Z,57.9
2023-08-10T16:26:14.384Z,58.6
2023-08-10T16:27:28.618Z,58.7
2023-08-10T16:28:42.838Z,58.6
2023-08-10T16:29:57.077Z,59.1
2023-08-10T16:31:11.365Z,58.4
2023-08-10T16:32:25.607Z,60
2023-08-10T16:33:39.830Z,60.9
2023-08-10T16:34:54.127Z,58.7
2023-08-10T16:36:07.441Z,58.2
2023-08-10T16:37:21.726Z,59.1
2023-08-10T16:38:35.029Z,59.5
2023-08-10T16:39:49.264Z,58.5
2023-08-10T16:41:03.560Z,58.9
2023-08-10T16:42:17.797Z,60.4
2023-08-10T16:43:32.016Z,59
2023-08-10T16:44:46.248Z,59.7
2023-08-10T16:46:00.480Z,59.7
2023-08-10T16:47:14.784Z,58.7
2023-08-10T16:48:29.024Z,58.3
2023-08-10T16:49:43.241Z,58.9
2023-08-10T16:50:57.477Z,59.1
2023-08-10T16:52:11.697Z,59.8
2023-08-10T16:53:25.990Z,59.3
2023-08-10T16:54:40.239Z,58.1